Time;durP1;ratioP1;P1;durP2;ratioP2;P2;SDS_P1;SDS_P2;PMS_P1;PMS_P2;Temp;Humidity;BMP_temperature;BMP_pressure;BME280_temperature;BME280_humidity;BME280_pressure;Samples;Min_cycle;Max_cycle;Signal;HPM_P1;HPM_P2
2023/05/17 16:41:51;;;;;;;0.40;0.40;;;;;;;;;;7399034;19;20503;-89
2023/05/17 16:44:20;;;;;;;0.60;0.60;;;;;;;;;;7397943;19;20212;-90
2023/05/17 16:46:47;;;;;;;0.30;0.30;;;;;;;;;;7396777;19;20220;-90
2023/05/17 16:49:14;;;;;;;0.50;0.50;;;;;;;;;;7395847;19;20153;-90
2023/05/17 16:53:06;;;;;;;;;;;;;;;;;;;;;
2023/05/17 16:55:43;;;;;;;0.40;0.40;;;;;;;;;;7397707;19;20634;-90
2023/05/17 16:58:11;;;;;;;0.50;0.50;;;;;;;;;;7391786;19;20664;-90
2023/05/17 17:17:30;;;;;;;0.52;0.52;;;;;;;;;;7401303;19;20160;-91
2023/05/17 17:55:12;;;;;;;0.35;0.35;;;;;;;;;;7399056;19;20143;-88
2023/05/17 17:57:46;;;;;;;0.30;0.30;;;;;;;;;;7393661;19;20196;-89
2023/05/17 18:00:49;;;;;;;0.40;0.40;;;;;;;;;;7395769;19;20141;-88
2023/05/17 18:03:24;;;;;;;0.60;0.60;;;;;;;;;;7394019;19;20153;-90
2023/05/17 18:05:51;;;;;;;0.50;0.50;;;;;;;;;;7392049;19;20141;-88
2023/05/17 18:08:18;;;;;;;0.30;0.30;;;;;;;;;;7395157;19;20236;-89
2023/05/17 18:10:44;;;;;;;0.40;0.40;;;;;;;;;;7393963;19;20140;-89
2023/05/17 18:13:19;;;;;;;0.30;0.30;;;;;;;;;;7386157;19;20133;-91
2023/05/17 18:15:46;;;;;;;0.50;0.50;;;;;;;;;;7389450;19;20184;-90
2023/05/17 18:18:15;;;;;;;0.30;0.30;;;;;;;;;;7392308;19;20184;-90
2023/05/17 18:20:42;;;;;;;0.20;0.20;;;;;;;;;;7395513;19;20208;-90
2023/05/17 18:23:09;;;;;;;0.40;0.40;;;;;;;;;;7395125;19;20646;-90
2023/05/17 18:25:35;;;;;;;0.30;0.30;;;;;;;;;;7394493;19;20205;-90
2023/05/17 18:28:02;;;;;;;0.40;0.40;;;;;;;;;;7392709;19;20638;-89
2023/05/17 18:30:30;;;;;;;0.40;0.40;;;;;;;;;;7393719;19;20143;-91
2023/05/17 18:32:57;;;;;;;0.38;0.38;;;;;;;;;;7392937;19;20257;-90
2023/05/17 18:35:24;;;;;;;0.35;0.35;;;;;;;;;;7393324;19;20597;-91
2023/05/17 18:37:50;;;;;;;0.30;0.30;;;;;;;;;;7391078;19;20168;-90
2023/05/17 18:40:17;;;;;;;0.40;0.40;;;;;;;;;;7393396;19;20137;-91
2023/05/17 18:42:45;;;;;;;0.40;0.40;;;;;;;;;;7394601;19;20141;-91
2023/05/17 18:45:13;;;;;;;0.35;0.35;;;;;;;;;;7392970;19;20137;-91
2023/05/17 18:47:41;;;;;;;0.68;0.68;;;;;;;;;;7392873;19;20156;-90
2023/05/17 18:50:07;;;;;;;4.28;0.50;;;;;;;;;;7392891;19;20151;-91
2023/05/17 18:52:35;;;;;;;0.40;0.40;;;;;;;;;;7393613;19;20208;-91
2023/05/17 18:55:02;;;;;;;0.47;0.45;;;;;;;;;;7395602;19;20160;-91
2023/05/17 18:57:29;;;;;;;0.38;0.38;;;;;;;;;;7393580;19;20179;-91
2023/05/17 18:59:56;;;;;;;0.70;0.70;;;;;;;;;;7393712;19;20161;-90
2023/05/17 19:02:23;;;;;;;0.60;0.60;;;;;;;;;;7401931;19;20141;-91
2023/05/17 19:04:54;;;;;;;0.38;0.38;;;;;;;;;;7430841;19;20182;-91
2023/05/17 19:07:21;;;;;;;0.80;0.80;;;;;;;;;;7425176;19;20171;-91
2023/05/17 19:24:43;;;;;;;0.70;0.70;;;;;;;;;;7396460;19;20236;-90
2023/05/17 19:27:42;;;;;;;0.40;0.40;;;;;;;;;;7388305;19;20198;-90
2023/05/17 19:30:08;;;;;;;0.40;0.40;;;;;;;;;;7390403;19;20148;-90
2023/05/17 19:32:38;;;;;;;0.30;0.30;;;;;;;;;;7390796;19;20149;-90
2023/05/17 19:51:02;;;;;;;0.30;0.30;;;;;;;;;;7392327;19;20594;-91
2023/05/17 23:25:47;;;;;;;0.30;0.30;;;;;;;;;;7428699;19;20196;-97
2023/05/17 23:28:34;;;;;;;0.30;0.30;;;;;;;;;;7432323;19;20168;-96
2023/05/17 23:31:17;;;;;;;1.03;0.93;;;;;;;;;;7433344;19;20145;-96
2023/05/17 23:33:49;;;;;;;0.30;0.30;;;;;;;;;;7428743;19;20128;-96
2023/05/17 23:36:48;;;;;;;0.30;0.30;;;;;;;;;;7433210;19;20160;-96
2023/05/17 23:39:57;;;;;;;0.63;0.63;;;;;;;;;;7433478;19;20144;-96
2023/05/17 23:42:54;;;;;;;0.77;0.77;;;;;;;;;;7430779;19;20156;-96
2023/05/17 23:45:30;;;;;;;0.70;0.70;;;;;;;;;;7428791;19;20152;-96
2023/05/17 23:48:58;;;;;;;0.30;0.30;;;;;;;;;;7433534;19;20148;-96
2023/05/17 23:52:17;;;;;;;0.40;0.40;;;;;;;;;;7435556;19;20125;-96
2023/05/17 23:56:00;;;;;;;0.40;0.40;;;;;;;;;;7434232;19;20139;-96
2023/05/17 23:59:07;;;;;;;0.67;0.67;;;;;;;;;;7432850;19;20137;-96
